sensor_id;sensor_type;location;lat;lon;timestamp;pressure;altitude;pressure_sealevel;temperature;humidity
8253;BME280;61313;48.396;10.008;2023-03-13T00:00:53;95799.34;;;8.52;67.59
8253;BME280;61313;48.396;10.008;2023-03-13T00:03:19;95800.25;;;8.51;68.31
8253;BME280;61313;48.396;10.008;2023-03-13T00:05:45;95805.97;;;8.40;68.16
8253;BME280;61313;48.396;10.008;2023-03-13T00:08:10;95793.41;;;8.28;69.11
8253;BME280;61313;48.396;10.008;2023-03-13T00:10:37;95793.91;;;8.17;68.89
8253;BME280;61313;48.396;10.008;2023-03-13T00:13:04;95796.00;;;8.09;69.62
8253;BME280;61313;48.396;10.008;2023-03-13T00:15:29;95792.13;;;8.18;69.30
8253;BME280;61313;48.396;10.008;2023-03-13T00:17:55;95793.22;;;8.12;69.79
8253;BME280;61313;48.396;10.008;2023-03-13T00:20:20;95783.72;;;8.11;69.22
8253;BME280;61313;48.396;10.008;2023-03-13T00:22:46;95787.41;;;8.26;69.19
8253;BME280;61313;48.396;10.008;2023-03-13T00:25:12;95791.00;;;8.23;68.65
8253;BME280;61313;48.396;10.008;2023-03-13T00:27:37;95793.81;;;8.19;68.90
8253;BME280;61313;48.396;10.008;2023-03-13T00:30:03;95792.78;;;8.23;68.52
8253;BME280;61313;48.396;10.008;2023-03-13T00:32:28;95798.59;;;8.09;69.32
8253;BME280;61313;48.396;10.008;2023-03-13T00:34:54;95791.16;;;8.20;68.89
8253;BME280;61313;48.396;10.008;2023-03-13T00:37:19;95789.13;;;8.27;68.70
8253;BME280;61313;48.396;10.008;2023-03-13T00:39:44;95789.38;;;8.41;68.33
8253;BME280;61313;48.396;10.008;2023-03-13T00:42:10;95791.59;;;8.51;67.78
8253;BME280;61313;48.396;10.008;2023-03-13T00:44:35;95789.09;;;8.47;67.42
8253;BME280;61313;48.396;10.008;2023-03-13T00:47:01;95793.13;;;8.55;67.37
8253;BME280;61313;48.396;10.008;2023-03-13T00:49:26;95795.66;;;8.56;67.34
8253;BME280;61313;48.396;10.008;2023-03-13T00:51:52;95783.16;;;8.63;66.85
8253;BME280;61313;48.396;10.008;2023-03-13T00:54:17;95783.78;;;8.49;67.27
8253;BME280;61313;48.396;10.008;2023-03-13T00:56:43;95782.84;;;8.50;67.65
8253;BME280;61313;48.396;10.008;2023-03-13T00:59:09;95781.72;;;8.37;68.21
8253;BME280;61313;48.396;10.008;2023-03-13T01:01:35;95783.28;;;8.41;68.25
8253;BME280;61313;48.396;10.008;2023-03-13T01:04:05;95786.41;;;8.49;68.21
8253;BME280;61313;48.396;10.008;2023-03-13T01:06:34;95776.78;;;8.50;67.39
8253;BME280;61313;48.396;10.008;2023-03-13T01:09:00;95777.63;;;8.50;67.60
8253;BME280;61313;48.396;10.008;2023-03-13T01:11:28;95766.75;;;8.59;67.22
8253;BME280;61313;48.396;10.008;2023-03-13T01:13:56;95765.13;;;8.57;67.08
8253;BME280;61313;48.396;10.008;2023-03-13T01:16:23;95764.56;;;8.50;67.46
8253;BME280;61313;48.396;10.008;2023-03-13T01:18:54;95763.03;;;8.46;68.49
8253;BME280;61313;48.396;10.008;2023-03-13T01:21:21;95758.00;;;8.41;67.99
8253;BME280;61313;48.396;10.008;2023-03-13T01:23:48;95750.72;;;8.48;68.02
8253;BME280;61313;48.396;10.008;2023-03-13T01:26:14;95752.78;;;8.41;67.85
8253;BME280;61313;48.396;10.008;2023-03-13T01:28:40;95755.09;;;8.47;68.09
8253;BME280;61313;48.396;10.008;2023-03-13T01:31:11;95751.63;;;8.47;67.84
8253;BME280;61313;48.396;10.008;2023-03-13T01:33:36;95749.94;;;8.46;68.58
8253;BME280;61313;48.396;10.008;2023-03-13T01:36:02;95753.34;;;8.48;67.92
8253;BME280;61313;48.396;10.008;2023-03-13T01:38:28;95758.44;;;8.51;67.77
8253;BME280;61313;48.396;10.008;2023-03-13T01:40:53;95746.03;;;8.55;67.75
8253;BME280;61313;48.396;10.008;2023-03-13T01:43:20;95745.63;;;8.45;68.15
8253;BME280;61313;48.396;10.008;2023-03-13T01:50:59;95731.56;;;8.47;68.05
8253;BME280;61313;48.396;10.008;2023-03-13T01:53:26;95737.00;;;8.43;68.04
8253;BME280;61313;48.396;10.008;2023-03-13T01:55:53;95727.19;;;8.48;68.65
8253;BME280;61313;48.396;10.008;2023-03-13T01:58:20;95728.16;;;8.45;68.46
8253;BME280;61313;48.396;10.008;2023-03-13T02:00:46;95724.84;;;8.42;68.32
8253;BME280;61313;48.396;10.008;2023-03-13T02:03:15;95721.25;;;8.44;68.56
8253;BME280;61313;48.396;10.008;2023-03-13T02:05:42;95720.72;;;8.36;68.03
8253;BME280;61313;48.396;10.008;2023-03-13T02:08:13;95721.47;;;8.38;68.74
8253;BME280;61313;48.396;10.008;2023-03-13T02:10:52;95713.16;;;8.30;68.48
8253;BME280;61313;48.396;10.008;2023-03-13T02:13:20;95720.38;;;7.85;70.33
8253;BME280;61313;48.396;10.008;2023-03-13T02:15:46;95722.19;;;8.04;69.87
8253;BME280;61313;48.396;10.008;2023-03-13T02:18:13;95719.78;;;7.99;69.64
8253;BME280;61313;48.396;10.008;2023-03-13T02:20:39;95710.28;;;8.17;69.46
8253;BME280;61313;48.396;10.008;2023-03-13T02:23:21;95709.34;;;8.18;68.99
8253;BME280;61313;48.396;10.008;2023-03-13T02:25:51;95711.75;;;8.23;68.65
8253;BME280;61313;48.396;10.008;2023-03-13T02:28:20;95712.53;;;8.25;68.57
8253;BME280;61313;48.396;10.008;2023-03-13T02:30:50;95708.28;;;8.22;68.58
8253;BME280;61313;48.396;10.008;2023-03-13T02:33:17;95704.25;;;8.15;69.05
8253;BME280;61313;48.396;10.008;2023-03-13T02:35:44;95698.88;;;8.18;68.72
8253;BME280;61313;48.396;10.008;2023-03-13T02:38:13;95693.03;;;8.13;69.22
8253;BME280;61313;48.396;10.008;2023-03-13T02:40:43;95691.97;;;8.17;69.15
8253;BME280;61313;48.396;10.008;2023-03-13T02:43:33;95690.84;;;8.04;69.62
8253;BME280;61313;48.396;10.008;2023-03-13T02:49:09;95687.22;;;7.88;70.02
8253;BME280;61313;48.396;10.008;2023-03-13T02:51:35;95686.44;;;7.85;70.11
8253;BME280;61313;48.396;10.008;2023-03-13T02:54:06;95678.03;;;7.98;69.75
8253;BME280;61313;48.396;10.008;2023-03-13T02:56:35;95675.22;;;8.02;69.39
8253;BME280;61313;48.396;10.008;2023-03-13T02:59:02;95668.72;;;8.11;68.58
8253;BME280;61313;48.396;10.008;2023-03-13T03:01:27;95666.31;;;8.06;68.85
8253;BME280;61313;48.396;10.008;2023-03-13T03:03:53;95662.56;;;8.12;68.48
8253;BME280;61313;48.396;10.008;2023-03-13T03:06:18;95650.69;;;8.24;68.30
8253;BME280;61313;48.396;10.008;2023-03-13T03:08:44;95657.44;;;8.30;67.66
8253;BME280;61313;48.396;10.008;2023-03-13T03:11:10;95664.41;;;8.10;68.46
8253;BME280;61313;48.396;10.008;2023-03-13T03:13:35;95663.22;;;8.17;68.53
8253;BME280;61313;48.396;10.008;2023-03-13T03:16:06;95655.50;;;8.14;68.67
8253;BME280;61313;48.396;10.008;2023-03-13T03:18:31;95644.06;;;8.17;68.71
8253;BME280;61313;48.396;10.008;2023-03-13T03:20:57;95655.31;;;8.19;67.97
8253;BME280;61313;48.396;10.008;2023-03-13T03:23:22;95646.63;;;8.18;68.58
8253;BME280;61313;48.396;10.008;2023-03-13T03:25:48;95645.56;;;8.22;68.27
8253;BME280;61313;48.396;10.008;2023-03-13T03:28:13;95649.50;;;8.12;68.91
8253;BME280;61313;48.396;10.008;2023-03-13T03:30:38;95643.50;;;8.10;68.47
8253;BME280;61313;48.396;10.008;2023-03-13T03:33:04;95645.00;;;8.16;68.77
8253;BME280;61313;48.396;10.008;2023-03-13T03:35:29;95640.59;;;8.16;68.97
8253;BME280;61313;48.396;10.008;2023-03-13T03:37:55;95636.09;;;8.20;68.25
8253;BME280;61313;48.396;10.008;2023-03-13T03:40:20;95634.19;;;8.23;68.43
8253;BME280;61313;48.396;10.008;2023-03-13T03:42:46;95628.25;;;8.20;68.84
8253;BME280;61313;48.396;10.008;2023-03-13T03:45:11;95636.63;;;8.26;68.52
8253;BME280;61313;48.396;10.008;2023-03-13T03:47:37;95628.94;;;8.23;68.73
8253;BME280;61313;48.396;10.008;2023-03-13T03:50:02;95628.69;;;8.30;67.96
8253;BME280;61313;48.396;10.008;2023-03-13T03:52:28;95623.56;;;8.26;68.75
8253;BME280;61313;48.396;10.008;2023-03-13T03:54:54;95611.91;;;8.34;68.71
8253;BME280;61313;48.396;10.008;2023-03-13T03:57:19;95597.31;;;8.30;68.41
8253;BME280;61313;48.396;10.008;2023-03-13T03:59:45;95587.28;;;8.20;69.58
8253;BME280;61313;48.396;10.008;2023-03-13T04:02:10;95588.97;;;8.21;69.42
8253;BME280;61313;48.396;10.008;2023-03-13T04:04:36;95591.75;;;8.36;68.85
8253;BME280;61313;48.396;10.008;2023-03-13T04:07:01;95586.28;;;8.23;69.49
8253;BME280;61313;48.396;10.008;2023-03-13T04:09:26;95582.41;;;8.32;69.24
8253;BME280;61313;48.396;10.008;2023-03-13T04:11:52;95585.53;;;8.38;68.36
8253;BME280;61313;48.396;10.008;2023-03-13T04:14:17;95582.19;;;8.36;68.92
8253;BME280;61313;48.396;10.008;2023-03-13T04:16:43;95580.28;;;8.40;69.39
8253;BME280;61313;48.396;10.008;2023-03-13T04:19:08;95587.19;;;8.41;69.35
8253;BME280;61313;48.396;10.008;2023-03-13T04:21:34;95579.00;;;8.30;69.11
8253;BME280;61313;48.396;10.008;2023-03-13T04:23:59;95572.47;;;8.38;69.56
8253;BME280;61313;48.396;10.008;2023-03-13T04:26:24;95571.28;;;8.26;69.91
8253;BME280;61313;48.396;10.008;2023-03-13T04:28:50;95567.56;;;8.32;69.41
8253;BME280;61313;48.396;10.008;2023-03-13T04:31:15;95575.25;;;8.35;68.95
8253;BME280;61313;48.396;10.008;2023-03-13T04:33:41;95567.59;;;8.50;69.24
8253;BME280;61313;48.396;10.008;2023-03-13T04:36:06;95559.84;;;8.48;68.75
8253;BME280;61313;48.396;10.008;2023-03-13T04:38:32;95548.41;;;8.51;69.12
8253;BME280;61313;48.396;10.008;2023-03-13T04:40:57;95550.38;;;8.45;68.52
8253;BME280;61313;48.396;10.008;2023-03-13T04:43:23;95554.63;;;8.48;68.67
8253;BME280;61313;48.396;10.008;2023-03-13T04:45:51;95553.91;;;8.44;68.54
8253;BME280;61313;48.396;10.008;2023-03-13T04:48:18;95551.03;;;8.32;69.42
8253;BME280;61313;48.396;10.008;2023-03-13T04:50:44;95555.16;;;8.36;69.00
8253;BME280;61313;48.396;10.008;2023-03-13T04:53:09;95562.75;;;8.42;68.84
8253;BME280;61313;48.396;10.008;2023-03-13T04:55:34;95559.31;;;8.41;68.41
8253;BME280;61313;48.396;10.008;2023-03-13T04:58:00;95556.97;;;8.53;68.72
8253;BME280;61313;48.396;10.008;2023-03-13T05:00:25;95549.06;;;8.54;68.04
8253;BME280;61313;48.396;10.008;2023-03-13T05:02:51;95551.63;;;8.56;68.32
8253;BME280;61313;48.396;10.008;2023-03-13T05:05:17;95556.06;;;8.54;68.91
8253;BME280;61313;48.396;10.008;2023-03-13T05:07:42;95552.22;;;8.43;69.00
8253;BME280;61313;48.396;10.008;2023-03-13T05:10:08;95542.63;;;8.61;68.42
8253;BME280;61313;48.396;10.008;2023-03-13T05:12:34;95536.63;;;8.77;67.53
8253;BME280;61313;48.396;10.008;2023-03-13T05:14:59;95537.00;;;8.69;67.43
8253;BME280;61313;48.396;10.008;2023-03-13T05:17:24;95532.41;;;8.74;67.29
8253;BME280;61313;48.396;10.008;2023-03-13T05:19:50;95540.16;;;8.76;67.24
8253;BME280;61313;48.396;10.008;2023-03-13T05:22:15;95534.47;;;8.67;68.31
8253;BME280;61313;48.396;10.008;2023-03-13T05:24:41;95534.16;;;8.74;68.26
8253;BME280;61313;48.396;10.008;2023-03-13T05:27:06;95524.69;;;8.71;67.69
8253;BME280;61313;48.396;10.008;2023-03-13T05:29:31;95505.84;;;8.82;67.81
8253;BME280;61313;48.396;10.008;2023-03-13T05:31:57;95518.63;;;8.71;67.67
8253;BME280;61313;48.396;10.008;2023-03-13T05:34:22;95515.69;;;8.77;67.22
8253;BME280;61313;48.396;10.008;2023-03-13T05:36:48;95514.47;;;8.84;67.97
8253;BME280;61313;48.396;10.008;2023-03-13T05:39:13;95526.69;;;8.83;67.20
8253;BME280;61313;48.396;10.008;2023-03-13T05:41:39;95538.28;;;8.95;67.01
8253;BME280;61313;48.396;10.008;2023-03-13T05:44:04;95534.06;;;8.93;67.29
8253;BME280;61313;48.396;10.008;2023-03-13T05:46:29;95534.34;;;9.04;67.39
8253;BME280;61313;48.396;10.008;2023-03-13T05:48:55;95521.81;;;9.10;66.86
8253;BME280;61313;48.396;10.008;2023-03-13T05:51:20;95532.09;;;9.14;66.47
8253;BME280;61313;48.396;10.008;2023-03-13T05:53:46;95523.47;;;9.11;66.87
8253;BME280;61313;48.396;10.008;2023-03-13T05:56:11;95524.00;;;9.18;65.71
8253;BME280;61313;48.396;10.008;2023-03-13T05:58:37;95517.34;;;9.13;66.17
8253;BME280;61313;48.396;10.008;2023-03-13T06:01:10;95513.13;;;9.10;66.63
8253;BME280;61313;48.396;10.008;2023-03-13T06:03:36;95514.72;;;9.13;66.32
8253;BME280;61313;48.396;10.008;2023-03-13T06:06:02;95520.78;;;9.13;66.94
8253;BME280;61313;48.396;10.008;2023-03-13T06:08:27;95526.97;;;9.12;67.17
8253;BME280;61313;48.396;10.008;2023-03-13T06:10:53;95525.50;;;9.06;67.25
8253;BME280;61313;48.396;10.008;2023-03-13T06:13:18;95526.84;;;8.98;68.01
8253;BME280;61313;48.396;10.008;2023-03-13T06:15:52;95525.25;;;9.11;67.53
8253;BME280;61313;48.396;10.008;2023-03-13T06:18:17;95527.41;;;9.20;66.07
8253;BME280;61313;48.396;10.008;2023-03-13T06:20:43;95511.28;;;9.28;65.73
8253;BME280;61313;48.396;10.008;2023-03-13T06:23:09;95505.72;;;9.34;65.84
8253;BME280;61313;48.396;10.008;2023-03-13T06:25:34;95506.81;;;9.30;65.95
8253;BME280;61313;48.396;10.008;2023-03-13T06:27:59;95491.69;;;9.35;65.83
8253;BME280;61313;48.396;10.008;2023-03-13T06:30:25;95492.81;;;9.31;65.60
8253;BME280;61313;48.396;10.008;2023-03-13T06:32:50;95490.97;;;9.33;65.27
8253;BME280;61313;48.396;10.008;2023-03-13T06:35:16;95490.97;;;9.33;66.11
8253;BME280;61313;48.396;10.008;2023-03-13T06:37:41;95482.00;;;9.37;66.15
8253;BME280;61313;48.396;10.008;2023-03-13T06:40:07;95488.16;;;9.36;65.32
8253;BME280;61313;48.396;10.008;2023-03-13T06:42:33;95492.31;;;9.40;65.21
8253;BME280;61313;48.396;10.008;2023-03-13T06:44:59;95491.31;;;9.43;65.77
8253;BME280;61313;48.396;10.008;2023-03-13T06:47:24;95501.84;;;9.41;65.55
8253;BME280;61313;48.396;10.008;2023-03-13T06:49:50;95492.63;;;9.34;66.32
8253;BME280;61313;48.396;10.008;2023-03-13T06:52:15;95488.94;;;9.54;65.97
8253;BME280;61313;48.396;10.008;2023-03-13T06:54:41;95489.09;;;9.51;66.30
8253;BME280;61313;48.396;10.008;2023-03-13T06:57:06;95478.63;;;9.51;65.63
8253;BME280;61313;48.396;10.008;2023-03-13T06:59:31;95491.72;;;9.51;66.19
8253;BME280;61313;48.396;10.008;2023-03-13T07:01:57;95497.91;;;9.66;65.92
8253;BME280;61313;48.396;10.008;2023-03-13T07:04:23;95496.03;;;9.68;65.79
8253;BME280;61313;48.396;10.008;2023-03-13T07:06:50;95487.59;;;9.63;66.73
8253;BME280;61313;48.396;10.008;2023-03-13T07:09:15;95475.09;;;9.68;66.02
8253;BME280;61313;48.396;10.008;2023-03-13T07:11:40;95487.84;;;9.74;65.08
8253;BME280;61313;48.396;10.008;2023-03-13T07:14:06;95489.63;;;9.73;65.41
8253;BME280;61313;48.396;10.008;2023-03-13T07:16:31;95488.63;;;9.76;65.87
8253;BME280;61313;48.396;10.008;2023-03-13T07:18:57;95492.66;;;9.98;65.27
8253;BME280;61313;48.396;10.008;2023-03-13T07:21:22;95490.31;;;9.93;65.44
8253;BME280;61313;48.396;10.008;2023-03-13T07:23:48;95485.69;;;10.12;65.01
8253;BME280;61313;48.396;10.008;2023-03-13T07:26:14;95493.13;;;10.36;63.90
8253;BME280;61313;48.396;10.008;2023-03-13T07:28:40;95503.06;;;10.61;63.30
8253;BME280;61313;48.396;10.008;2023-03-13T07:31:14;95493.91;;;10.83;62.08
8253;BME280;61313;48.396;10.008;2023-03-13T07:33:41;95494.41;;;10.89;62.35
8253;BME280;61313;48.396;10.008;2023-03-13T07:36:07;95482.53;;;11.41;60.06
8253;BME280;61313;48.396;10.008;2023-03-13T07:38:33;95480.41;;;11.75;58.59
8253;BME280;61313;48.396;10.008;2023-03-13T07:40:58;95476.53;;;11.95;57.50
8253;BME280;61313;48.396;10.008;2023-03-13T07:43:24;95467.19;;;11.62;58.49
8253;BME280;61313;48.396;10.008;2023-03-13T07:45:54;95467.47;;;11.57;59.05
8253;BME280;61313;48.396;10.008;2023-03-13T07:48:20;95468.81;;;11.36;59.79
8253;BME280;61313;48.396;10.008;2023-03-13T07:50:46;95474.34;;;11.17;60.15
8253;BME280;61313;48.396;10.008;2023-03-13T07:53:12;95478.97;;;11.13;60.58
8253;BME280;61313;48.396;10.008;2023-03-13T07:55:38;95479.16;;;11.10;60.94
8253;BME280;61313;48.396;10.008;2023-03-13T07:58:03;95489.34;;;11.00;61.32
8253;BME280;61313;48.396;10.008;2023-03-13T08:00:29;95491.78;;;11.04;61.51
8253;BME280;61313;48.396;10.008;2023-03-13T08:02:54;95489.81;;;11.21;61.18
8253;BME280;61313;48.396;10.008;2023-03-13T08:05:20;95479.16;;;11.39;60.43
8253;BME280;61313;48.396;10.008;2023-03-13T08:07:45;95482.31;;;11.58;59.74
8253;BME280;61313;48.396;10.008;2023-03-13T08:10:10;95478.34;;;11.65;59.41
8253;BME280;61313;48.396;10.008;2023-03-13T08:12:36;95479.00;;;11.69;59.71
8253;BME280;61313;48.396;10.008;2023-03-13T08:15:01;95479.28;;;11.93;59.43
8253;BME280;61313;48.396;10.008;2023-03-13T08:17:30;95487.88;;;12.10;58.99
8253;BME280;61313;48.396;10.008;2023-03-13T08:19:55;95482.72;;;12.21;58.19
8253;BME280;61313;48.396;10.008;2023-03-13T08:22:21;95473.56;;;12.54;57.22
8253;BME280;61313;48.396;10.008;2023-03-13T08:24:46;95468.56;;;12.89;56.29
8253;BME280;61313;48.396;10.008;2023-03-13T08:27:12;95462.13;;;13.06;55.20
8253;BME280;61313;48.396;10.008;2023-03-13T08:29:37;95457.09;;;13.03;55.63
8253;BME280;61313;48.396;10.008;2023-03-13T08:32:03;95449.50;;;12.98;55.51
8253;BME280;61313;48.396;10.008;2023-03-13T08:34:29;95448.03;;;13.07;56.67
8253;BME280;61313;48.396;10.008;2023-03-13T08:36:54;95445.38;;;13.20;55.98
8253;BME280;61313;48.396;10.008;2023-03-13T08:39:21;95449.41;;;13.25;56.17
8253;BME280;61313;48.396;10.008;2023-03-13T08:41:46;95438.31;;;13.20;56.25
8253;BME280;61313;48.396;10.008;2023-03-13T08:44:14;95447.94;;;13.21;56.17
8253;BME280;61313;48.396;10.008;2023-03-13T08:46:40;95440.34;;;13.29;55.73
8253;BME280;61313;48.396;10.008;2023-03-13T08:49:07;95444.38;;;13.35;55.68
8253;BME280;61313;48.396;10.008;2023-03-13T08:51:33;95435.81;;;13.31;55.95
8253;BME280;61313;48.396;10.008;2023-03-13T08:53:59;95430.22;;;13.36;55.96
8253;BME280;61313;48.396;10.008;2023-03-13T08:56:26;95427.06;;;13.31;55.67
8253;BME280;61313;48.396;10.008;2023-03-13T08:58:56;95430.00;;;13.52;56.19
8253;BME280;61313;48.396;10.008;2023-03-13T09:01:24;95434.47;;;13.75;55.07
8253;BME280;61313;48.396;10.008;2023-03-13T09:03:51;95423.66;;;14.27;54.47
8253;BME280;61313;48.396;10.008;2023-03-13T09:06:17;95413.88;;;14.64;52.73
8253;BME280;61313;48.396;10.008;2023-03-13T09:08:43;95409.72;;;14.84;52.13
8253;BME280;61313;48.396;10.008;2023-03-13T09:11:11;95410.22;;;15.12;51.41
8253;BME280;61313;48.396;10.008;2023-03-13T09:13:42;95406.13;;;15.64;50.20
8253;BME280;61313;48.396;10.008;2023-03-13T09:16:11;95404.25;;;16.09;49.10
8253;BME280;61313;48.396;10.008;2023-03-13T09:18:37;95411.19;;;16.11;48.80
8253;BME280;61313;48.396;10.008;2023-03-13T09:21:06;95419.84;;;15.80;49.49
8253;BME280;61313;48.396;10.008;2023-03-13T09:23:31;95411.69;;;15.50;49.94
8253;BME280;61313;48.396;10.008;2023-03-13T09:25:57;95414.06;;;15.30;51.00
8253;BME280;61313;48.396;10.008;2023-03-13T09:28:24;95395.94;;;15.25;51.09
8253;BME280;61313;48.396;10.008;2023-03-13T09:30:50;95394.88;;;15.17;51.68
8253;BME280;61313;48.396;10.008;2023-03-13T09:33:17;95383.66;;;15.47;51.08
8253;BME280;61313;48.396;10.008;2023-03-13T09:35:43;95389.19;;;15.33;51.36
8253;BME280;61313;48.396;10.008;2023-03-13T09:38:15;95370.09;;;15.18;51.91
8253;BME280;61313;48.396;10.008;2023-03-13T09:40:44;95379.38;;;15.12;51.81
8253;BME280;61313;48.396;10.008;2023-03-13T09:45:58;95363.03;;;15.07;52.98
8253;BME280;61313;48.396;10.008;2023-03-13T09:48:32;95363.16;;;15.06;53.17
8253;BME280;61313;48.396;10.008;2023-03-13T09:51:06;95365.44;;;15.10;52.74
8253;BME280;61313;48.396;10.008;2023-03-13T09:53:45;95372.63;;;15.08;53.06
8253;BME280;61313;48.396;10.008;2023-03-13T09:56:19;95372.75;;;15.18;52.51
8253;BME280;61313;48.396;10.008;2023-03-13T09:59:18;95383.53;;;15.37;52.36
8253;BME280;61313;48.396;10.008;2023-03-13T10:01:45;95392.91;;;15.53;52.36
8253;BME280;61313;48.396;10.008;2023-03-13T10:06:43;95380.09;;;15.92;50.96
8253;BME280;61313;48.396;10.008;2023-03-13T10:09:20;95377.25;;;16.16;50.35
8253;BME280;61313;48.396;10.008;2023-03-13T10:14:23;95381.19;;;16.54;49.73
8253;BME280;61313;48.396;10.008;2023-03-13T10:17:04;95365.16;;;16.76;49.27
8253;BME280;61313;48.396;10.008;2023-03-13T10:19:35;95367.84;;;17.07;48.29
8253;BME280;61313;48.396;10.008;2023-03-13T10:22:18;95367.75;;;16.87;48.41
8253;BME280;61313;48.396;10.008;2023-03-13T10:24:49;95363.28;;;16.46;49.58
8253;BME280;61313;48.396;10.008;2023-03-13T10:27:16;95362.44;;;16.66;49.20
8253;BME280;61313;48.396;10.008;2023-03-13T10:29:41;95362.84;;;16.62;49.08
8253;BME280;61313;48.396;10.008;2023-03-13T10:32:09;95358.19;;;16.75;49.03
8253;BME280;61313;48.396;10.008;2023-03-13T10:34:52;95351.53;;;16.60;49.29
8253;BME280;61313;48.396;10.008;2023-03-13T10:37:23;95341.44;;;16.96;48.55
8253;BME280;61313;48.396;10.008;2023-03-13T10:39:49;95337.75;;;17.08;48.30
8253;BME280;61313;48.396;10.008;2023-03-13T10:42:30;95334.13;;;17.19;48.13
8253;BME280;61313;48.396;10.008;2023-03-13T10:45:04;95339.63;;;17.27;47.85
8253;BME280;61313;48.396;10.008;2023-03-13T10:47:34;95347.34;;;17.09;48.99
8253;BME280;61313;48.396;10.008;2023-03-13T10:50:01;95337.28;;;17.03;48.68
8253;BME280;61313;48.396;10.008;2023-03-13T10:52:41;95337.63;;;17.19;48.42
8253;BME280;61313;48.396;10.008;2023-03-13T10:55:12;95331.50;;;17.19;48.66
8253;BME280;61313;48.396;10.008;2023-03-13T10:57:41;95335.47;;;17.34;48.72
8253;BME280;61313;48.396;10.008;2023-03-13T11:00:37;95326.72;;;17.53;47.80
8253;BME280;61313;48.396;10.008;2023-03-13T11:03:18;95313.22;;;17.85;47.56
8253;BME280;61313;48.396;10.008;2023-03-13T11:05:56;95308.09;;;18.03;47.04
8253;BME280;61313;48.396;10.008;2023-03-13T11:08:25;95301.78;;;18.24;46.25
8253;BME280;61313;48.396;10.008;2023-03-13T11:11:02;95294.50;;;18.35;46.41
8253;BME280;61313;48.396;10.008;2023-03-13T11:16:02;95283.75;;;18.27;46.60
8253;BME280;61313;48.396;10.008;2023-03-13T11:19:07;95283.22;;;18.24;46.53
8253;BME280;61313;48.396;10.008;2023-03-13T11:21:40;95278.69;;;18.44;46.36
8253;BME280;61313;48.396;10.008;2023-03-13T11:24:23;95272.00;;;18.30;46.43
8253;BME280;61313;48.396;10.008;2023-03-13T11:26:59;95274.22;;;18.34;46.87
8253;BME280;61313;48.396;10.008;2023-03-13T11:32:41;95258.59;;;18.22;46.66
8253;BME280;61313;48.396;10.008;2023-03-13T11:41:31;95240.13;;;18.30;46.61
8253;BME280;61313;48.396;10.008;2023-03-13T11:47:10;95231.50;;;18.18;46.39
8253;BME280;61313;48.396;10.008;2023-03-13T11:49:55;95231.91;;;18.13;46.21
8253;BME280;61313;48.396;10.008;2023-03-13T11:55:27;95224.75;;;18.33;46.15
8253;BME280;61313;48.396;10.008;2023-03-13T12:00:57;95210.47;;;18.44;45.93
8253;BME280;61313;48.396;10.008;2023-03-13T12:03:41;95196.59;;;18.50;44.93
8253;BME280;61313;48.396;10.008;2023-03-13T12:08:55;95195.28;;;18.64;44.56
8253;BME280;61313;48.396;10.008;2023-03-13T12:11:27;95187.56;;;18.71;44.75
8253;BME280;61313;48.396;10.008;2023-03-13T12:14:04;95185.19;;;18.77;43.99
8253;BME280;61313;48.396;10.008;2023-03-13T12:16:53;95175.25;;;18.79;43.95
8253;BME280;61313;48.396;10.008;2023-03-13T12:19:25;95168.97;;;18.80;43.72
8253;BME280;61313;48.396;10.008;2023-03-13T12:21:55;95165.06;;;18.65;44.25
8253;BME280;61313;48.396;10.008;2023-03-13T12:24:32;95165.91;;;18.38;44.44
8253;BME280;61313;48.396;10.008;2023-03-13T12:35:31;95144.00;;;18.26;45.40
8253;BME280;61313;48.396;10.008;2023-03-13T12:43:48;95122.78;;;18.07;45.54
8253;BME280;61313;48.396;10.008;2023-03-13T12:54:24;95087.13;;;18.19;44.92
8253;BME280;61313;48.396;10.008;2023-03-13T12:59:53;95075.59;;;18.38;45.20
8253;BME280;61313;48.396;10.008;2023-03-13T13:02:23;95070.31;;;18.28;45.21
8253;BME280;61313;48.396;10.008;2023-03-13T13:04:51;95068.19;;;18.32;45.55
8253;BME280;61313;48.396;10.008;2023-03-13T13:07:29;95058.84;;;18.28;45.45
8253;BME280;61313;48.396;10.008;2023-03-13T13:12:25;95057.31;;;18.25;45.58
8253;BME280;61313;48.396;10.008;2023-03-13T13:19:50;95031.59;;;18.26;45.29
8253;BME280;61313;48.396;10.008;2023-03-13T13:25:55;95006.97;;;18.33;45.19
8253;BME280;61313;48.396;10.008;2023-03-13T13:30:47;94990.06;;;18.07;45.56
8253;BME280;61313;48.396;10.008;2023-03-13T13:38:46;94972.72;;;18.30;45.10
8253;BME280;61313;48.396;10.008;2023-03-13T13:43:39;94966.91;;;18.45;43.95
8253;BME280;61313;48.396;10.008;2023-03-13T13:48:43;94959.19;;;18.33;43.54
8253;BME280;61313;48.396;10.008;2023-03-13T14:02:22;94936.72;;;18.46;44.44
8253;BME280;61313;48.396;10.008;2023-03-13T14:10:05;94913.50;;;18.48;43.79
8253;BME280;61313;48.396;10.008;2023-03-13T14:12:34;94916.44;;;18.45;43.78
8253;BME280;61313;48.396;10.008;2023-03-13T14:17:40;94909.16;;;18.29;43.44
8253;BME280;61313;48.396;10.008;2023-03-13T14:20:39;94906.34;;;18.30;43.61
8253;BME280;61313;48.396;10.008;2023-03-13T14:23:34;94901.03;;;18.30;44.07
8253;BME280;61313;48.396;10.008;2023-03-13T14:26:24;94896.72;;;18.29;44.43
8253;BME280;61313;48.396;10.008;2023-03-13T14:28:55;94887.06;;;18.28;44.25
8253;BME280;61313;48.396;10.008;2023-03-13T14:31:27;94894.97;;;18.20;44.45
8253;BME280;61313;48.396;10.008;2023-03-13T14:33:58;94879.63;;;18.14;44.90
8253;BME280;61313;48.396;10.008;2023-03-13T14:36:25;94873.03;;;18.18;44.99
8253;BME280;61313;48.396;10.008;2023-03-13T14:38:55;94875.38;;;18.21;44.59
8253;BME280;61313;48.396;10.008;2023-03-13T14:41:43;94869.94;;;18.23;44.72
8253;BME280;61313;48.396;10.008;2023-03-13T14:44:23;94869.16;;;18.30;44.79
8253;BME280;61313;48.396;10.008;2023-03-13T14:47:00;94856.66;;;18.40;44.27
8253;BME280;61313;48.396;10.008;2023-03-13T14:49:28;94862.72;;;18.51;44.21
8253;BME280;61313;48.396;10.008;2023-03-13T14:54:32;94843.53;;;18.39;44.14
8253;BME280;61313;48.396;10.008;2023-03-13T14:59:27;94842.59;;;18.30;44.61
8253;BME280;61313;48.396;10.008;2023-03-13T15:02:14;94833.91;;;18.20;44.38
8253;BME280;61313;48.396;10.008;2023-03-13T15:04:58;94832.53;;;18.16;44.53